Time;durP1;ratioP1;P1;durP2;ratioP2;P2;SDS_P1;SDS_P2;PMS_P1;PMS_P2;Temp;Humidity;BMP_temperature;BMP_pressure;BME280_temperature;BME280_humidity;BME280_pressure;Samples;Min_cycle;Max_cycle;Signal;HPM_P1;HPM_P2
2022/03/13 00:02:08;;;;;;;12.20;11.10;;;;;;;-7.22;67.04;93701.22;5099554;28;20219;-79
2022/03/13 00:04:36;;;;;;;11.87;11.07;;;;;;;-7.34;67.86;93715.06;5100277;28;20198;-79
2022/03/13 00:07:09;;;;;;;10.60;9.90;;;;;;;-6.85;66.33;93711.97;5099966;28;20259;-79
2022/03/13 00:09:35;;;;;;;11.27;10.47;;;;;;;-6.73;66.08;93710.78;5101885;28;20255;-79
2022/03/13 00:12:08;;;;;;;11.23;10.53;;;;;;;-6.64;65.47;93709.88;5100369;28;21105;-79
2022/03/13 00:14:34;;;;;;;12.23;11.53;;;;;;;-7.27;66.67;93681.34;5080439;28;20188;-79
2022/03/13 00:17:00;;;;;;;10.47;9.97;;;;;;;-7.04;65.76;93690.13;5098286;28;20204;-78
2022/03/13 00:19:25;;;;;;;11.13;10.10;;;;;;;-6.83;65.68;93718.50;5101419;28;20220;-74
2022/03/13 00:21:53;;;;;;;10.63;10.03;;;;;;;-7.32;65.22;93619.34;5098188;28;20191;-77
2022/03/13 00:24:20;;;;;;;10.93;10.43;;;;;;;-7.02;65.92;93687.44;5097558;28;20235;-78
2022/03/13 00:26:48;;;;;;;10.67;9.97;;;;;;;-6.79;65.64;93711.38;5101048;28;20211;-78
2022/03/13 00:29:13;;;;;;;12.73;11.70;;;;;;;-6.98;66.67;93703.94;5083099;28;20242;-77
2022/03/13 00:31:39;;;;;;;12.23;11.13;;;;;;;-7.14;66.49;93721.56;5080956;28;20276;-77
2022/03/13 00:34:05;;;;;;;11.57;10.77;;;;;;;-7.12;66.86;93707.81;5099612;28;20296;-77
2022/03/13 00:36:31;;;;;;;12.43;11.60;;;;;;;-7.36;67.21;93677.16;5102203;28;20269;-77
2022/03/13 00:38:56;;;;;;;12.33;11.53;;;;;;;-6.80;65.92;93695.34;5099695;28;20311;-80
2022/03/13 00:41:21;;;;;;;11.80;11.20;;;;;;;-6.71;65.77;93707.16;5081410;28;20257;-78
2022/03/13 00:43:47;;;;;;;11.20;10.40;;;;;;;-6.76;64.99;93671.28;5079629;28;20265;-77
2022/03/13 00:46:12;;;;;;;11.63;10.90;;;;;;;-6.43;64.68;93714.63;5097763;28;20188;-77
2022/03/13 00:48:38;;;;;;;10.70;9.90;;;;;;;-6.83;64.46;93677.06;5101265;28;20220;-78
2022/03/13 00:51:03;;;;;;;11.40;10.70;;;;;;;-6.50;65.01;93711.88;5098933;28;20216;-77
2022/03/13 00:53:29;;;;;;;10.60;10.00;;;;;;;-6.72;64.82;93694.59;5099062;28;20220;-78
2022/03/13 00:55:54;;;;;;;10.77;10.20;;;;;;;-7.00;64.88;93666.03;5080736;28;20204;-77
2022/03/13 00:58:20;;;;;;;10.30;9.77;;;;;;;-6.71;64.85;93696.22;5098381;28;20225;-78
2022/03/13 01:00:45;;;;;;;12.37;11.57;;;;;;;-6.87;64.84;93646.16;5098635;28;20185;-77
2022/03/13 01:03:30;;;;;;;10.90;10.20;;;;;;;-7.56;66.20;93667.31;5099204;28;20224;-77
2022/03/13 01:05:56;;;;;;;10.63;9.77;;;;;;;-8.29;67.50;93601.72;5100450;28;20192;-77
2022/03/13 01:08:21;;;;;;;10.53;10.03;;;;;;;-7.20;67.19;93684.09;5097317;28;20294;-77
2022/03/13 01:10:50;;;;;;;10.80;10.20;;;;;;;-7.16;65.75;93654.97;5081020;28;20208;-78
2022/03/13 01:13:16;;;;;;;11.20;10.40;;;;;;;-7.16;65.42;93677.81;5080098;28;20216;-77
2022/03/13 01:15:47;;;;;;;11.27;10.67;;;;;;;-7.53;65.39;93621.41;5098958;28;20184;-77
2022/03/13 01:18:12;;;;;;;11.30;10.70;;;;;;;-7.34;65.91;93618.69;5098493;28;20237;-77
2022/03/13 01:20:38;;;;;;;12.23;11.57;;;;;;;-7.24;65.53;93650.66;5102291;28;20199;-77
2022/03/13 01:23:03;;;;;;;11.17;10.57;;;;;;;-7.49;66.12;93648.84;5097953;28;20220;-77
2022/03/13 01:25:29;;;;;;;11.53;10.80;;;;;;;-7.84;67.37;93637.94;5097654;28;20180;-77
2022/03/13 01:27:54;;;;;;;11.00;10.40;;;;;;;-7.86;68.09;93647.41;5097988;28;20224;-77
2022/03/13 01:30:20;;;;;;;10.90;10.37;;;;;;;-7.90;68.02;93618.22;5100296;28;20184;-77
2022/03/13 01:32:53;;;;;;;11.40;10.60;;;;;;;-7.26;66.38;93644.13;5080654;28;20239;-78
2022/03/13 01:35:20;;;;;;;12.07;11.13;;;;;;;-7.58;66.03;93629.44;5098378;28;20199;-77
2022/03/13 01:37:45;;;;;;;11.10;10.33;;;;;;;-8.03;67.48;93615.25;5101608;28;20232;-77
2022/03/13 01:40:13;;;;;;;11.53;10.80;;;;;;;-7.67;67.74;93649.81;5081682;28;20192;-77
2022/03/13 01:42:40;;;;;;;11.33;10.63;;;;;;;-7.63;67.08;93635.88;5081086;28;20242;-77
2022/03/13 01:45:11;;;;;;;10.57;9.77;;;;;;;-7.76;67.22;93631.19;5100047;28;20321;-77
2022/03/13 01:47:37;;;;;;;11.07;10.43;;;;;;;-7.52;66.78;93640.75;5094336;28;20254;-77
2022/03/13 01:50:04;;;;;;;10.83;10.23;;;;;;;-7.45;66.22;93618.91;5100037;28;20194;-77
2022/03/13 01:52:30;;;;;;;11.33;10.60;;;;;;;-7.81;67.16;93607.22;5099186;28;20263;-77
2022/03/13 01:54:56;;;;;;;11.57;10.77;;;;;;;-7.49;67.14;93642.97;5082857;28;20176;-77
2022/03/13 01:57:22;;;;;;;12.43;11.63;;;;;;;-7.54;66.18;93610.47;5096229;28;20216;-78
2022/03/13 01:59:54;;;;;;;11.37;10.67;;;;;;;-7.14;65.93;93658.16;5080083;28;20184;-77
2022/03/13 02:02:21;;;;;;;11.60;10.80;;;;;;;-7.44;66.90;93631.44;5079311;28;20228;-77
2022/03/13 02:04:51;;;;;;;12.67;11.57;;;;;;;-7.44;66.57;93656.03;5082597;28;20184;-77
2022/03/13 02:07:17;;;;;;;11.43;10.53;;;;;;;-7.33;66.35;93638.81;5099151;28;20234;-77
2022/03/13 02:09:43;;;;;;;12.00;11.03;;;;;;;-7.32;65.48;93610.00;5099831;28;20196;-77
2022/03/13 02:12:09;;;;;;;11.83;11.03;;;;;;;-7.08;65.08;93657.59;5094993;28;20219;-77
2022/03/13 02:14:35;;;;;;;12.23;11.40;;;;;;;-7.30;65.71;93663.13;5097443;28;20190;-77
2022/03/13 02:17:00;;;;;;;11.70;10.90;;;;;;;-7.76;67.57;93645.59;5098908;28;20192;-77
2022/03/13 02:19:25;;;;;;;12.37;11.47;;;;;;;-7.18;66.20;93641.66;5078707;28;20187;-77
2022/03/13 02:21:52;;;;;;;12.27;11.43;;;;;;;-6.91;65.45;93664.34;5098706;28;20327;-77
2022/03/13 02:24:22;;;;;;;11.70;10.90;;;;;;;-7.43;66.12;93653.34;5096980;28;20232;-77
2022/03/13 02:26:55;;;;;;;12.00;11.00;;;;;;;-8.12;68.12;93633.84;5080087;28;20192;-77
2022/03/13 02:29:21;;;;;;;12.30;11.40;;;;;;;-8.14;68.98;93646.66;5079926;28;20218;-77
2022/03/13 02:31:46;;;;;;;13.87;12.50;;;;;;;-8.36;69.55;93645.31;5080869;28;20276;-77
2022/03/13 02:34:14;;;;;;;12.83;11.80;;;;;;;-7.96;68.94;93624.66;5097790;28;20343;-77
2022/03/13 02:36:43;;;;;;;13.63;12.50;;;;;;;-7.92;69.04;93650.50;5100001;28;20207;-77
2022/03/13 02:39:10;;;;;;;14.80;11.03;;;;;;;-8.12;68.89;93651.56;5097379;28;20227;-77
2022/03/13 02:41:37;;;;;;;12.10;11.20;;;;;;;-8.47;69.61;93599.94;5099004;28;20184;-77
2022/03/13 02:44:06;;;;;;;15.17;11.80;;;;;;;-7.86;67.88;93644.88;5097221;28;20229;-77
2022/03/13 02:46:52;;;;;;;13.37;12.17;;;;;;;-8.21;68.92;93655.72;5080226;28;20197;-77
2022/03/13 02:49:19;;;;;;;12.60;11.63;;;;;;;-7.81;68.73;93658.69;5097904;28;20236;-77
2022/03/13 02:51:47;;;;;;;12.10;11.30;;;;;;;-8.16;68.67;93650.25;5098042;28;20213;-77
2022/03/13 02:54:14;;;;;;;12.50;11.67;;;;;;;-7.73;68.06;93665.56;5097110;28;20228;-77
2022/03/13 02:56:41;;;;;;;13.47;12.37;;;;;;;-7.59;67.38;93662.53;5098509;28;20177;-77
2022/03/13 02:59:06;;;;;;;11.43;10.73;;;;;;;-7.66;67.23;93639.53;5095232;28;20287;-77
2022/03/13 03:01:32;;;;;;;14.37;12.97;;;;;;;-7.61;67.13;93606.13;5098996;28;20196;-77
2022/03/13 03:04:00;;;;;;;12.93;11.93;;;;;;;-7.82;67.43;93661.38;5098118;28;20247;-77
2022/03/13 03:06:28;;;;;;;14.00;13.10;;;;;;;-7.67;67.21;93660.72;5083463;28;20195;-77
2022/03/13 03:08:54;;;;;;;12.47;11.47;;;;;;;-7.62;66.92;93612.13;5100602;28;20243;-77
2022/03/13 03:11:21;;;;;;;12.40;11.40;;;;;;;-7.47;66.91;93652.03;5103104;28;20204;-77
2022/03/13 03:13:46;;;;;;;13.00;12.13;;;;;;;-7.63;67.30;93616.41;5082980;28;20223;-77
2022/03/13 03:16:12;;;;;;;12.43;11.43;;;;;;;-7.36;67.01;93653.56;5101424;28;20183;-77
2022/03/13 03:18:37;;;;;;;12.10;11.23;;;;;;;-7.44;66.22;93630.66;5103666;28;20237;-76
2022/03/13 03:21:03;;;;;;;12.23;11.30;;;;;;;-7.50;66.63;93646.47;5102458;28;20212;-77
2022/03/13 03:23:29;;;;;;;11.40;10.70;;;;;;;-7.69;67.69;93641.53;5101615;28;20212;-77
2022/03/13 03:25:54;;;;;;;12.43;11.53;;;;;;;-7.62;67.68;93638.28;5100078;28;20197;-76
2022/03/13 03:28:21;;;;;;;13.30;12.33;;;;;;;-7.58;67.29;93596.47;5101211;28;20219;-77
2022/03/13 03:30:47;;;;;;;11.87;10.83;;;;;;;-7.43;67.18;93622.13;5082088;28;20255;-77
2022/03/13 03:33:12;;;;;;;12.83;11.73;;;;;;;-7.65;66.86;93609.88;5098289;28;20810;-77
2022/03/13 03:35:38;;;;;;;11.87;11.17;;;;;;;-7.36;67.28;93639.13;5100004;28;20214;-77
2022/03/13 03:38:03;;;;;;;12.50;11.47;;;;;;;-7.37;67.06;93629.94;5099426;28;20309;-77
2022/03/13 03:40:31;;;;;;;12.33;11.47;;;;;;;-7.83;68.65;93629.38;5102197;28;20196;-76
2022/03/13 03:43:04;;;;;;;12.40;11.40;;;;;;;-7.28;67.53;93634.13;5100549;28;20213;-77
2022/03/13 03:45:30;;;;;;;12.97;11.90;;;;;;;-7.39;67.28;93625.97;5099907;28;20192;-77
2022/03/13 03:47:56;;;;;;;12.10;11.23;;;;;;;-7.76;68.14;93605.03;5099926;28;20207;-77
2022/03/13 03:50:21;;;;;;;12.97;11.90;;;;;;;-7.08;67.91;93627.91;5100639;28;20185;-77
2022/03/13 03:52:47;;;;;;;11.63;10.80;;;;;;;-6.82;67.63;93625.41;5102742;28;20310;-76
2022/03/13 03:55:14;;;;;;;12.90;11.93;;;;;;;-6.76;66.38;93629.88;5102263;28;20177;-77
2022/03/13 03:57:40;;;;;;;12.40;11.40;;;;;;;-6.71;66.38;93635.28;5099258;28;20224;-76
2022/03/13 04:00:08;;;;;;;13.60;12.63;;;;;;;-6.85;66.85;93625.69;5099745;28;20195;-76
2022/03/13 04:02:34;;;;;;;12.60;11.70;;;;;;;-6.78;66.11;93596.22;5098449;28;21754;-77
2022/03/13 04:05:00;;;;;;;12.70;11.50;;;;;;;-6.68;65.89;93624.84;5097991;28;20204;-76
2022/03/13 04:07:26;;;;;;;13.73;12.63;;;;;;;-6.47;66.38;93621.94;5101237;28;20289;-77
2022/03/13 04:09:52;;;;;;;13.20;12.10;;;;;;;-6.78;66.44;93598.75;5103590;28;20188;-76
2022/03/13 04:12:18;;;;;;;14.20;13.20;;;;;;;-6.49;66.15;93604.31;5099528;28;20861;-77
2022/03/13 04:14:44;;;;;;;12.77;11.77;;;;;;;-6.21;67.29;93620.88;5081104;28;20180;-77
2022/03/13 04:17:10;;;;;;;13.67;12.30;;;;;;;-6.26;67.92;93625.66;5100761;28;20192;-76
2022/03/13 04:19:36;;;;;;;14.40;13.20;;;;;;;-6.24;67.47;93630.59;5100249;28;20181;-76
2022/03/13 04:22:02;;;;;;;14.37;13.27;;;;;;;-6.41;66.66;93617.00;5100815;28;20195;-76
2022/03/13 04:24:30;;;;;;;15.67;14.40;;;;;;;-6.19;66.43;93619.00;5102674;28;20180;-76
2022/03/13 04:26:56;;;;;;;14.10;12.63;;;;;;;-6.37;67.04;93581.94;5099082;28;20184;-77
2022/03/13 04:29:23;;;;;;;14.20;13.00;;;;;;;-6.56;67.39;93522.06;5101983;28;20193;-75
2022/03/13 04:31:50;;;;;;;14.50;13.07;;;;;;;-5.83;67.40;93612.75;5098281;28;20275;-77
2022/03/13 04:34:18;;;;;;;15.17;13.87;;;;;;;-6.04;67.66;93576.03;5099057;28;20224;-76
2022/03/13 04:36:44;;;;;;;14.00;12.67;;;;;;;-5.83;68.10;93611.94;5085126;28;20200;-76
2022/03/13 04:39:10;;;;;;;13.57;12.53;;;;;;;-5.69;66.96;93599.41;5100352;28;20220;-76
2022/03/13 04:41:37;;;;;;;12.73;11.63;;;;;;;-5.75;66.73;93564.44;5098442;28;20215;-76
2022/03/13 04:44:04;;;;;;;12.50;11.60;;;;;;;-5.97;67.05;93554.91;5078954;28;20228;-76
2022/03/13 04:46:30;;;;;;;13.20;12.07;;;;;;;-5.89;68.25;93602.41;5100543;28;20185;-76
2022/03/13 04:48:57;;;;;;;12.80;11.90;;;;;;;-5.60;67.50;93618.78;5098013;28;20225;-77
2022/03/13 04:51:22;;;;;;;13.77;12.60;;;;;;;-6.17;67.94;93581.53;5101490;28;20220;-76
2022/03/13 04:53:48;;;;;;;15.10;12.63;;;;;;;-6.25;68.10;93551.03;5096423;28;20296;-76
2022/03/13 04:56:13;;;;;;;14.10;13.00;;;;;;;-5.92;68.77;93623.84;5101063;28;20184;-77
2022/03/13 04:58:39;;;;;;;14.33;12.93;;;;;;;-5.79;67.90;93618.28;5098907;28;20212;-76
2022/03/13 05:01:04;;;;;;;15.60;14.03;;;;;;;-5.95;68.28;93582.69;5099703;28;20206;-76
2022/03/13 05:03:33;;;;;;;16.97;15.27;;;;;;;-5.98;70.18;93603.34;5081957;28;20225;-76
2022/03/13 05:06:05;;;;;;;19.33;15.97;;;;;;;-5.50;68.95;93608.47;5080555;28;20192;-76
2022/03/13 05:08:34;;;;;;;17.30;15.33;;;;;;;-5.42;67.16;93586.38;5077200;28;20244;-76
2022/03/13 05:11:00;;;;;;;17.40;15.80;;;;;;;-5.87;68.53;93570.00;5078089;28;20189;-77
2022/03/13 05:13:26;;;;;;;19.00;17.10;;;;;;;-5.56;68.98;93620.09;5077303;28;20293;-76
2022/03/13 05:15:53;;;;;;;22.33;18.50;;;;;;;-5.55;68.96;93625.94;5078524;28;20211;-76
2022/03/13 05:18:19;;;;;;;29.87;19.90;;;;;;;-5.58;69.37;93637.22;5078339;28;20228;-77
2022/03/13 05:20:45;;;;;;;23.00;18.40;;;;;;;-5.06;67.79;93632.66;5079480;28;20197;-76
2022/03/13 05:23:10;;;;;;;28.83;20.23;;;;;;;-4.95;67.93;93630.56;5078328;28;20239;-73
2022/03/13 05:25:38;;;;;;;27.27;20.60;;;;;;;-5.22;67.49;93577.47;5079721;28;20188;-75
2022/03/13 05:28:04;;;;;;;29.30;21.60;;;;;;;-4.87;67.25;93619.56;5077535;28;20236;-75
2022/03/13 05:30:30;;;;;;;32.90;22.53;;;;;;;-5.08;68.35;93632.00;5077666;28;20207;-76
2022/03/13 05:32:55;;;;;;;31.07;21.97;;;;;;;-4.98;68.06;93630.09;5077750;28;20266;-76
2022/03/13 05:35:22;;;;;;;36.13;23.27;;;;;;;-4.89;67.30;93625.78;5077486;28;20200;-75
2022/03/13 05:37:48;;;;;;;37.63;23.43;;;;;;;-4.58;65.95;93596.09;5076093;28;20229;-76
2022/03/13 05:40:15;;;;;;;32.83;23.27;;;;;;;-4.98;67.32;93630.09;5077722;28;20174;-76
2022/03/13 05:42:46;;;;;;;37.10;24.07;;;;;;;-5.12;67.62;93618.78;5077310;28;20237;-76
2022/03/13 05:45:13;;;;;;;34.90;23.90;;;;;;;-4.68;67.63;93633.69;5081349;28;20231;-76
2022/03/13 05:47:47;;;;;;;30.93;23.67;;;;;;;-4.40;66.36;93642.53;5077572;28;20285;-76
2022/03/13 05:50:13;;;;;;;36.50;24.73;;;;;;;-4.77;66.38;93630.38;5079365;28;20185;-76
2022/03/13 05:52:40;;;;;;;40.10;25.63;;;;;;;-5.14;66.59;93584.28;5075588;28;20288;-76
2022/03/13 05:55:07;;;;;;;41.83;27.23;;;;;;;-4.90;67.49;93606.38;5078270;28;20193;-76
2022/03/13 05:57:34;;;;;;;37.67;24.70;;;;;;;-4.45;67.20;93642.25;5079199;28;20231;-76
2022/03/13 05:59:59;;;;;;;47.87;28.37;;;;;;;-4.42;66.07;93644.47;5079676;28;20224;-76
2022/03/13 06:02:25;;;;;;;45.37;26.57;;;;;;;-4.47;64.86;93654.34;5078051;28;20232;-76
2022/03/13 06:04:52;;;;;;;39.80;26.40;;;;;;;-4.52;65.55;93631.13;5079632;28;20189;-76
2022/03/13 06:07:19;;;;;;;40.83;26.83;;;;;;;-4.41;65.43;93658.78;5082677;28;20295;-76
2022/03/13 06:09:44;;;;;;;39.50;25.93;;;;;;;-4.64;65.84;93617.94;5100153;28;20188;-76
2022/03/13 06:12:10;;;;;;;38.67;27.43;;;;;;;-4.40;65.27;93662.91;5098916;28;20212;-76
2022/03/13 06:14:36;;;;;;;42.63;28.03;;;;;;;-4.49;65.62;93625.69;5095091;28;20198;-76
2022/03/13 06:17:02;;;;;;;41.27;26.93;;;;;;;-4.93;65.33;93571.06;5098200;28;20217;-76
2022/03/13 06:19:27;;;;;;;37.53;26.23;;;;;;;-4.72;66.33;93655.34;5079142;28;20181;-76
2022/03/13 06:21:52;;;;;;;41.90;27.17;;;;;;;-3.76;64.99;93670.34;5098890;28;20223;-76
2022/03/13 06:24:18;;;;;;;37.87;28.00;;;;;;;-3.82;63.85;93660.81;5098061;28;21962;-76
2022/03/13 06:26:44;;;;;;;39.03;28.57;;;;;;;-3.86;63.97;93654.47;5080150;28;20211;-76
2022/03/13 06:29:13;;;;;;;38.73;28.30;;;;;;;-3.96;64.91;93653.88;5094656;28;20228;-77
2022/03/13 06:31:38;;;;;;;42.20;29.13;;;;;;;-4.11;64.41;93660.63;5096252;28;20243;-76
2022/03/13 06:34:04;;;;;;;40.47;28.13;;;;;;;-4.42;64.81;93619.00;5097609;28;20259;-76
2022/03/13 06:36:29;;;;;;;36.93;26.83;;;;;;;-4.40;64.85;93594.94;5098173;28;20194;-77
2022/03/13 06:38:55;;;;;;;40.90;26.07;;;;;;;-4.17;64.62;93653.63;5076921;28;20284;-75
2022/03/13 06:41:21;;;;;;;38.73;27.67;;;;;;;-4.06;64.38;93650.72;5097192;28;20185;-74
2022/03/13 06:43:47;;;;;;;37.80;26.00;;;;;;;-4.10;64.29;93664.75;5100971;28;20235;-71
2022/03/13 06:46:13;;;;;;;36.37;24.93;;;;;;;-4.26;64.21;93659.69;5100783;28;20184;-76
2022/03/13 06:48:39;;;;;;;37.60;24.13;;;;;;;-4.38;63.94;93678.84;5085546;28;20216;-75
2022/03/13 06:51:04;;;;;;;30.50;23.90;;;;;;;-4.33;63.71;93672.31;5104802;28;20188;-75
2022/03/13 06:53:30;;;;;;;33.70;24.03;;;;;;;-4.17;63.59;93681.69;5094728;28;20290;-79
2022/03/13 06:55:55;;;;;;;30.80;21.83;;;;;;;-4.10;62.51;93680.03;5081720;28;20181;-78
2022/03/13 06:58:21;;;;;;;28.97;21.03;;;;;;;-4.05;60.83;93676.06;5079241;28;20281;-74
2022/03/13 07:00:49;;;;;;;35.20;22.97;;;;;;;-4.22;61.87;93666.06;5097954;28;20240;-76
2022/03/13 07:03:15;;;;;;;27.80;22.90;;;;;;;-3.98;61.00;93655.78;5099951;28;20224;-76
2022/03/13 07:05:41;;;;;;;28.13;22.30;;;;;;;-3.98;60.41;93655.78;5100302;28;20218;-75
2022/03/13 07:08:07;;;;;;;28.63;20.27;;;;;;;-3.83;59.17;93657.47;5099779;28;20244;-76
2022/03/13 07:10:33;;;;;;;23.90;19.83;;;;;;;-4.03;59.18;93625.69;5097399;28;20192;-76
2022/03/13 07:12:59;;;;;;;33.87;23.20;;;;;;;-3.78;59.61;93655.22;5102786;28;20242;-76
2022/03/13 07:15:26;;;;;;;38.27;24.27;;;;;;;-4.03;61.35;93647.84;5101007;28;20185;-79
2022/03/13 07:17:53;;;;;;;29.77;22.43;;;;;;;-3.94;61.63;93646.84;5099610;28;20256;-79
2022/03/13 07:20:18;;;;;;;28.87;22.20;;;;;;;-4.31;61.34;93609.22;5098875;28;20200;-75
2022/03/13 07:22:45;;;;;;;27.53;21.97;;;;;;;-3.94;60.86;93660.38;5082286;28;20290;-75
2022/03/13 07:25:11;;;;;;;26.60;22.57;;;;;;;-3.64;58.45;93659.59;5101316;28;20188;-76
2022/03/13 07:27:37;;;;;;;26.63;21.37;;;;;;;-3.69;59.29;93640.66;5096281;28;20288;-78
2022/03/13 07:30:04;;;;;;;27.57;19.93;;;;;;;-3.55;59.05;93652.72;5098643;28;20208;-79
2022/03/13 07:32:29;;;;;;;27.27;21.43;;;;;;;-3.53;59.37;93666.88;5098576;28;20228;-78
2022/03/13 07:34:55;;;;;;;38.80;22.33;;;;;;;-3.36;60.03;93655.59;5082980;28;20191;-79
2022/03/13 07:37:20;;;;;;;31.17;22.97;;;;;;;-2.94;59.15;93667.13;5094405;28;20826;-79
2022/03/13 07:39:47;;;;;;;28.47;21.87;;;;;;;-3.17;60.01;93667.13;5080719;28;20219;-81
2022/03/13 07:42:14;;;;;;;32.93;23.33;;;;;;;-3.51;60.10;93618.22;5083321;28;20184;-79
2022/03/13 07:44:40;;;;;;;29.23;21.67;;;;;;;-2.99;59.03;93670.19;5097908;28;20357;-81
2022/03/13 07:47:05;;;;;;;30.07;21.83;;;;;;;-2.92;57.14;93655.75;5078903;28;20317;-80
2022/03/13 07:49:31;;;;;;;32.47;21.50;;;;;;;-2.81;57.55;93662.22;5096153;28;20220;-80
2022/03/13 07:51:56;;;;;;;32.07;22.37;;;;;;;-3.39;59.67;93662.81;5095188;28;20212;-77
2022/03/13 07:54:22;;;;;;;30.93;23.83;;;;;;;-3.81;59.80;93626.69;5098364;28;20196;-79
2022/03/13 07:56:47;;;;;;;27.17;21.90;;;;;;;-3.04;58.92;93643.56;5098245;28;20656;-77
2022/03/13 07:59:13;;;;;;;30.83;21.60;;;;;;;-3.01;57.66;93661.91;5077967;28;20224;-77
2022/03/13 08:01:38;;;;;;;27.83;21.27;;;;;;;-2.61;56.66;93643.69;5098830;28;20244;-77
2022/03/13 08:04:05;;;;;;;26.33;21.67;;;;;;;-2.60;56.68;93645.25;5098395;28;20239;-78
2022/03/13 08:06:35;;;;;;;29.73;23.50;;;;;;;-2.46;56.57;93667.47;5095866;28;20208;-78
2022/03/13 08:09:05;;;;;;;26.60;22.13;;;;;;;-2.64;57.18;93654.25;5096637;28;20221;-76
2022/03/13 08:11:34;;;;;;;27.60;23.13;;;;;;;-2.61;57.22;93653.09;5094918;28;20221;-77
2022/03/13 08:14:00;;;;;;;29.00;23.80;;;;;;;-2.68;58.00;93637.69;5076848;28;20223;-78
2022/03/13 08:16:27;;;;;;;31.40;22.93;;;;;;;-2.31;57.26;93616.38;5099972;28;20236;-86
2022/03/13 08:18:53;;;;;;;26.67;22.20;;;;;;;-2.16;55.15;93640.16;5099384;28;20230;-86
2022/03/13 08:21:19;;;;;;;29.50;22.83;;;;;;;-2.12;56.33;93646.53;5102554;28;20196;-83
2022/03/13 08:23:44;;;;;;;29.53;23.60;;;;;;;-2.18;55.17;93624.22;5097757;28;20295;-87
2022/03/13 08:26:11;;;;;;;33.00;24.20;;;;;;;-1.48;53.54;93640.63;5100207;28;20193;-88
2022/03/13 08:28:37;;;;;;;30.80;22.73;;;;;;;-1.37;53.33;93595.81;5098907;28;20233;-79
2022/03/13 08:31:03;;;;;;;28.27;23.20;;;;;;;-1.38;52.40;93614.69;5100067;28;20204;-78
2022/03/13 08:33:29;;;;;;;34.63;23.60;;;;;;;-1.53;54.08;93603.72;5095655;28;20239;-80
2022/03/13 08:35:54;;;;;;;30.37;23.00;;;;;;;-1.34;53.57;93641.56;5080324;28;20193;-77
2022/03/13 08:38:20;;;;;;;36.17;23.43;;;;;;;-1.09;53.48;93637.66;5096550;28;20205;-79
2022/03/13 08:40:46;;;;;;;36.77;26.07;;;;;;;-1.07;52.85;93625.44;5079341;28;20199;-80
2022/03/13 08:43:12;;;;;;;31.77;25.50;;;;;;;-0.89;52.66;93633.50;5076920;28;20236;-80
2022/03/13 08:45:38;;;;;;;31.53;23.27;;;;;;;-0.84;52.49;93655.03;5080721;28;20196;-77
2022/03/13 08:48:04;;;;;;;32.47;24.70;;;;;;;-0.92;52.47;93639.00;5081459;28;20304;-76
2022/03/13 08:50:29;;;;;;;32.93;24.60;;;;;;;-0.88;51.17;93637.63;5080132;28;20176;-80
2022/03/13 08:52:56;;;;;;;39.13;25.23;;;;;;;-1.03;52.65;93654.84;5099275;28;20295;-78
2022/03/13 08:55:22;;;;;;;32.33;24.67;;;;;;;-0.88;52.37;93643.56;5098344;28;20185;-81
2022/03/13 08:57:48;;;;;;;32.17;25.10;;;;;;;-0.76;52.83;93643.84;5097238;28;20251;-76
2022/03/13 09:00:16;;;;;;;31.77;24.77;;;;;;;-0.75;52.20;93632.63;5100102;28;20337;-76
2022/03/13 09:02:43;;;;;;;38.30;26.33;;;;;;;-0.83;50.60;93618.19;5080481;28;20229;-80
2022/03/13 09:05:09;;;;;;;38.50;24.97;;;;;;;0.00;49.97;93634.31;5093377;28;20202;-81
2022/03/13 09:07:35;;;;;;;30.43;25.30;;;;;;;-0.20;49.81;93617.22;5096903;28;20244;-77
2022/03/13 09:10:02;;;;;;;32.53;25.73;;;;;;;-0.13;49.60;93626.56;5097836;28;20193;-89
2022/03/13 09:12:31;;;;;;;31.53;24.87;;;;;;;-0.38;49.83;93606.66;5098745;28;20228;-80
2022/03/13 09:14:57;;;;;;;32.33;26.30;;;;;;;-0.38;50.85;93630.53;5079893;28;20189;-84
2022/03/13 09:17:23;;;;;;;33.93;25.00;;;;;;;0.14;50.13;93636.94;5093878;28;20232;-82
2022/03/13 09:19:48;;;;;;;31.80;26.07;;;;;;;0.06;51.67;93627.63;5099454;28;20245;-78
2022/03/13 09:22:17;;;;;;;33.60;26.20;;;;;;;0.80;48.19;93589.94;5098634;28;20252;-83
2022/03/13 09:24:44;;;;;;;30.33;24.33;;;;;;;1.49;46.44;93629.75;5096940;28;20199;-85
2022/03/13 09:27:09;;;;;;;33.50;25.57;;;;;;;1.42;45.62;93619.44;5093256;28;20193;-78
2022/03/13 09:29:35;;;;;;;33.37;26.23;;;;;;;1.30;45.63;93618.47;5097055;28;20227;-79
2022/03/13 09:32:01;;;;;;;34.43;26.63;;;;;;;1.42;47.37;93608.34;5095031;28;20226;-76
2022/03/13 09:34:26;;;;;;;33.37;27.87;;;;;;;1.55;46.48;93616.88;5079274;28;20189;-78
2022/03/13 09:36:52;;;;;;;39.03;26.73;;;;;;;1.38;45.83;93612.34;5095541;28;20185;-76
2022/03/13 09:39:17;;;;;;;34.77;27.03;;;;;;;1.26;46.74;93601.06;5078329;28;20231;-83
2022/03/13 09:41:43;;;;;;;35.83;27.50;;;;;;;1.22;47.08;93613.50;5097928;28;20216;-76
2022/03/13 09:44:09;;;;;;;46.03;28.10;;;;;;;1.20;47.98;93614.69;5095611;28;20837;-76
2022/03/13 09:46:38;;;;;;;38.30;27.73;;;;;;;1.78;49.35;93620.78;5099949;28;20196;-77
2022/03/13 09:49:04;;;;;;;37.40;28.57;;;;;;;1.20;46.89;93623.19;5079150;28;20226;-77
2022/03/13 09:51:30;;;;;;;39.53;27.77;;;;;;;1.02;47.28;93607.56;5098129;28;20212;-77
2022/03/13 09:53:56;;;;;;;35.17;27.03;;;;;;;1.54;46.16;93617.09;5080029;28;20284;-76
2022/03/13 09:56:22;;;;;;;37.30;27.50;;;;;;;1.67;46.26;93599.84;5094080;28;20248;-76
2022/03/13 09:58:48;;;;;;;32.10;25.90;;;;;;;0.97;47.38;93612.50;5096842;28;20224;-77
2022/03/13 10:01:14;;;;;;;28.40;24.87;;;;;;;1.31;46.91;93606.38;5092203;28;20250;-76
2022/03/13 10:03:40;;;;;;;31.90;25.40;;;;;;;1.76;44.08;93584.19;5093369;28;20224;-76
2022/03/13 10:06:06;;;;;;;30.10;24.57;;;;;;;2.15;43.35;93602.88;5078065;28;20196;-77
2022/03/13 10:08:32;;;;;;;31.03;25.03;;;;;;;2.50;43.85;93609.31;5078350;28;20228;-76
2022/03/13 10:10:59;;;;;;;39.20;27.80;;;;;;;2.71;42.57;93601.25;5078879;28;20211;-77
2022/03/13 10:13:43;;;;;;;41.50;27.33;;;;;;;3.53;43.42;93601.13;5095969;28;20239;-77
2022/03/13 10:16:15;;;;;;;38.67;27.60;;;;;;;3.82;39.77;93599.66;5086116;28;20198;-76
2022/03/13 10:18:41;;;;;;;38.37;25.97;;;;;;;3.84;40.46;93595.88;5104016;28;20235;-76
2022/03/13 10:21:10;;;;;;;40.27;27.97;;;;;;;3.71;39.32;93593.41;5103451;28;20206;-77
2022/03/13 10:23:36;;;;;;;36.23;27.23;;;;;;;3.29;41.09;93589.78;5105006;28;20227;-77
2022/03/13 10:26:04;;;;;;;34.57;27.60;;;;;;;3.79;40.86;93585.38;5089720;28;20195;-77
2022/03/13 10:28:41;;;;;;;40.27;29.03;;;;;;;3.62;41.00;93579.19;5105480;28;20235;-77
2022/03/13 10:31:15;;;;;;;38.13;26.37;;;;;;;3.87;39.43;93587.69;5106494;28;20197;-77
2022/03/13 10:33:43;;;;;;;33.57;27.00;;;;;;;3.42;41.58;93599.22;5103725;28;20227;-77
2022/03/13 10:36:14;;;;;;;37.10;26.53;;;;;;;3.31;40.66;93577.44;5105084;28;20192;-76
2022/03/13 10:38:41;;;;;;;37.93;28.40;;;;;;;3.55;39.50;93572.50;5104437;28;20224;-76
2022/03/13 10:41:10;;;;;;;32.37;26.77;;;;;;;3.63;40.60;93591.06;5085759;28;20192;-76
2022/03/13 10:43:50;;;;;;;35.77;25.60;;;;;;;3.61;40.08;93579.41;5103015;28;20280;-77
2022/03/13 10:46:34;;;;;;;36.63;28.60;;;;;;;3.65;41.79;93583.91;5108010;28;20686;-77
2022/03/13 10:49:01;;;;;;;37.77;25.73;;;;;;;4.53;39.55;93583.34;5104202;28;20243;-76
2022/03/13 10:51:45;;;;;;;43.63;28.97;;;;;;;4.00;40.09;93566.88;5104079;28;20228;-77
2022/03/13 10:54:27;;;;;;;46.07;28.17;;;;;;;4.74;39.60;93579.53;5105347;28;20224;-78
2022/03/13 10:57:09;;;;;;;38.30;26.77;;;;;;;4.45;39.35;93578.47;5104267;28;20785;-77
2022/03/13 10:59:36;;;;;;;35.10;25.17;;;;;;;4.48;37.67;93577.28;5104985;28;20246;-77
2022/03/13 11:02:14;;;;;;;30.07;25.77;;;;;;;4.90;37.66;93582.28;5102287;28;20184;-78
2022/03/13 11:04:55;;;;;;;31.17;24.20;;;;;;;4.84;37.32;93549.53;5105772;28;20200;-78
2022/03/13 11:07:21;;;;;;;32.70;25.90;;;;;;;4.59;36.17;93571.38;5104431;28;20257;-77
2022/03/13 11:09:47;;;;;;;38.70;27.00;;;;;;;4.82;39.78;93561.88;5105633;28;20207;-77
2022/03/13 11:12:21;;;;;;;36.43;25.23;;;;;;;4.88;36.84;93568.78;5106100;28;20212;-78
2022/03/13 11:14:53;;;;;;;31.27;24.67;;;;;;;4.34;38.07;93566.28;5103624;28;20248;-78
2022/03/13 11:17:25;;;;;;;44.77;26.10;;;;;;;4.62;40.20;93552.81;5089114;28;20254;-77
2022/03/13 11:19:57;;;;;;;32.80;25.90;;;;;;;4.35;38.32;93567.09;5102315;28;20193;-77